Time;durP1;ratioP1;P1;durP2;ratioP2;P2;SDS_P1;SDS_P2;PMS_P1;PMS_P2;Temp;Humidity;BMP_temperature;BMP_pressure;BME280_temperature;BME280_humidity;BME280_pressure;Samples;Min_cycle;Max_cycle;Signal;HPM_P1;HPM_P2
2022/05/18 00:01:41;;;;;;;9.43;6.07;;;17.60;99.90;;;;;;5023521;28;20107;-66
2022/05/18 00:04:07;;;;;;;7.63;5.55;;;17.50;99.90;;;;;;5021021;28;20041;-66
2022/05/18 00:06:32;;;;;;;7.53;5.57;;;17.40;99.90;;;;;;5024092;28;20048;-66
2022/05/18 00:08:58;;;;;;;7.40;5.75;;;17.40;99.90;;;;;;5022340;28;20049;-66
2022/05/18 00:11:23;;;;;;;8.20;6.65;;;17.30;99.90;;;;;;5023856;28;20052;-65
2022/05/18 00:13:51;;;;;;;6.63;5.43;;;17.30;99.90;;;;;;5024915;28;20041;-66
2022/05/18 00:16:18;;;;;;;7.85;5.15;;;17.30;99.90;;;;;;5022486;28;20041;-66
2022/05/18 00:18:45;;;;;;;6.63;5.00;;;17.30;99.90;;;;;;5022750;28;20045;-66
2022/05/18 00:21:11;;;;;;;5.63;5.13;;;17.30;99.90;;;;;;5022527;28;20041;-66
2022/05/18 00:23:37;;;;;;;6.15;4.68;;;17.30;99.90;;;;;;5023471;28;20103;-66
2022/05/18 00:26:04;;;;;;;5.43;4.18;;;17.30;99.90;;;;;;5023158;28;20045;-66
2022/05/18 00:28:30;;;;;;;5.43;4.53;;;17.20;99.90;;;;;;5021089;28;20483;-66
2022/05/18 00:30:57;;;;;;;8.85;5.35;;;17.20;99.90;;;;;;5022584;28;20045;-66
2022/05/18 00:33:23;;;;;;;4.85;4.35;;;17.20;99.90;;;;;;5022518;28;20103;-66
2022/05/18 00:35:49;;;;;;;9.88;5.40;;;17.20;99.90;;;;;;5023075;28;20451;-66
2022/05/18 00:38:18;;;;;;;7.20;5.07;;;17.20;99.90;;;;;;5022475;28;20037;-66
2022/05/18 00:40:46;;;;;;;7.47;5.03;;;17.10;99.90;;;;;;5024325;28;20072;-66
2022/05/18 00:43:30;;;;;;;6.57;5.15;;;17.10;99.90;;;;;;5021591;28;20108;-66
2022/05/18 00:46:01;;;;;;;6.07;4.90;;;17.20;99.90;;;;;;5023361;28;20442;-66
2022/05/18 00:48:27;;;;;;;10.50;5.63;;;17.10;99.90;;;;;;5026220;28;20640;-66
2022/05/18 00:50:55;;;;;;;7.13;5.18;;;17.10;99.90;;;;;;5027831;28;20539;-66
2022/05/18 00:53:28;;;;;;;5.22;4.65;;;17.10;99.90;;;;;;5025542;28;20063;-66
2022/05/18 00:55:58;;;;;;;8.02;5.32;;;17.10;99.90;;;;;;5024166;28;20038;-66
2022/05/18 00:58:33;;;;;;;7.95;5.60;;;17.10;99.90;;;;;;5026126;28;20140;-66
2022/05/18 01:00:59;;;;;;;7.95;5.50;;;17.00;99.90;;;;;;5026623;28;20049;-66
2022/05/18 01:03:30;;;;;;;7.75;5.55;;;17.00;99.90;;;;;;5026929;28;20048;-66
2022/05/18 01:06:02;;;;;;;7.78;5.03;;;17.00;99.90;;;;;;5026704;28;20089;-66
2022/05/18 01:08:34;;;;;;;7.00;5.82;;;17.00;99.90;;;;;;5026169;28;20056;-66
2022/05/18 01:11:00;;;;;;;6.93;4.70;;;17.10;99.90;;;;;;5024141;28;20046;-66
2022/05/18 01:13:25;;;;;;;7.00;4.40;;;17.10;99.90;;;;;;5027543;28;20524;-66
2022/05/18 01:15:51;;;;;;;9.02;5.28;;;17.10;99.90;;;;;;5027433;28;20601;-66
2022/05/18 01:18:17;;;;;;;10.00;6.20;;;17.10;99.90;;;;;;5025487;28;20045;-66
2022/05/18 01:20:44;;;;;;;7.15;4.88;;;17.10;99.90;;;;;;5027694;28;20038;-66
2022/05/18 01:23:38;;;;;;;7.57;5.32;;;17.00;99.90;;;;;;5025966;28;20067;-66
2022/05/18 01:26:17;;;;;;;6.28;5.10;;;17.00;99.90;;;;;;5024411;28;20056;-65
2022/05/18 01:28:51;;;;;;;7.32;5.10;;;17.00;99.90;;;;;;5024812;28;20550;-66
2022/05/18 01:31:17;;;;;;;7.47;5.75;;;16.90;99.90;;;;;;5023657;28;20045;-66
2022/05/18 01:33:42;;;;;;;8.48;5.30;;;16.90;99.90;;;;;;5026353;28;20041;-65
2022/05/18 01:36:08;;;;;;;9.07;5.53;;;16.90;99.90;;;;;;5024821;28;20103;-66
2022/05/18 01:38:34;;;;;;;11.40;5.43;;;16.90;99.90;;;;;;5027417;28;20037;-66
2022/05/18 01:41:19;;;;;;;7.07;5.57;;;17.00;99.90;;;;;;5025698;28;20420;-66
2022/05/18 01:43:54;;;;;;;7.30;5.07;;;16.90;99.90;;;;;;5026892;28;20060;-66
2022/05/18 01:46:21;;;;;;;11.80;6.10;;;16.90;99.90;;;;;;5025587;28;21911;-66
2022/05/18 01:48:50;;;;;;;6.65;5.05;;;16.80;99.90;;;;;;5024991;28;20052;-66
2022/05/18 01:51:38;;;;;;;6.85;4.82;;;16.80;99.90;;;;;;5024864;28;20042;-66
2022/05/18 01:54:04;;;;;;;6.28;4.72;;;16.80;99.90;;;;;;5024162;28;20502;-66
2022/05/18 01:56:29;;;;;;;6.82;6.15;;;16.80;99.90;;;;;;5026221;28;20057;-66
2022/05/18 01:58:55;;;;;;;7.05;5.22;;;16.70;99.90;;;;;;5026368;28;20400;-66
2022/05/18 02:01:21;;;;;;;8.20;5.03;;;16.70;99.90;;;;;;5023281;28;21165;-66
2022/05/18 02:03:48;;;;;;;8.23;5.43;;;16.70;99.90;;;;;;5026236;28;20045;-66
2022/05/18 02:06:14;;;;;;;6.68;4.82;;;16.60;99.90;;;;;;5025499;28;20058;-66
2022/05/18 02:08:41;;;;;;;6.60;4.60;;;16.70;99.90;;;;;;5023847;28;20053;-66
2022/05/18 02:11:14;;;;;;;8.65;5.22;;;16.70;99.90;;;;;;5024320;28;20455;-66
2022/05/18 02:13:40;;;;;;;9.25;6.20;;;16.70;99.90;;;;;;5024939;28;20128;-66
2022/05/18 02:16:06;;;;;;;6.65;5.47;;;16.60;99.90;;;;;;5025074;28;20781;-66
2022/05/18 02:18:32;;;;;;;7.32;5.63;;;16.60;99.90;;;;;;5023429;28;20041;-66
2022/05/18 02:20:57;;;;;;;7.13;5.00;;;16.50;99.90;;;;;;5025688;28;20033;-66
2022/05/18 02:23:23;;;;;;;8.63;5.85;;;16.50;99.90;;;;;;5024254;28;20033;-65
2022/05/18 02:25:49;;;;;;;6.93;5.30;;;16.60;99.90;;;;;;5025210;28;20080;-65
2022/05/18 02:28:14;;;;;;;6.35;5.63;;;16.50;99.90;;;;;;5024612;28;20049;-66
2022/05/18 02:30:40;;;;;;;9.45;5.88;;;16.50;99.90;;;;;;5024935;28;20042;-66
2022/05/18 02:33:05;;;;;;;6.72;5.75;;;16.50;99.90;;;;;;5024295;28;20037;-66
2022/05/18 02:35:31;;;;;;;8.48;5.97;;;16.40;99.90;;;;;;5023766;28;20052;-65
2022/05/18 02:37:59;;;;;;;6.80;5.50;;;16.40;99.90;;;;;;5026362;28;20132;-66
2022/05/18 02:40:24;;;;;;;7.82;5.90;;;16.40;99.90;;;;;;5025505;28;20084;-66
2022/05/18 02:42:50;;;;;;;7.38;6.07;;;16.40;99.90;;;;;;5025410;28;20436;-66
2022/05/18 02:45:16;;;;;;;6.35;5.75;;;16.30;99.90;;;;;;5023257;28;20467;-66
2022/05/18 02:47:41;;;;;;;6.63;5.43;;;16.30;99.90;;;;;;5024479;28;20061;-66
2022/05/18 02:50:08;;;;;;;6.80;5.47;;;16.30;99.90;;;;;;5023937;28;20683;-66
2022/05/18 02:52:35;;;;;;;6.70;5.90;;;16.20;99.90;;;;;;5024515;28;20060;-66
2022/05/18 02:57:45;;;;;;;7.03;5.60;;;16.10;99.90;;;;;;5023876;28;20049;-66
2022/05/18 03:00:13;;;;;;;6.93;5.47;;;16.00;99.90;;;;;;5023632;28;20051;-66
2022/05/18 03:02:38;;;;;;;6.55;5.95;;;14.60;99.90;;;;;;5025358;28;20484;-66
2022/05/18 03:05:04;;;;;;;8.73;5.57;;;15.80;99.90;;;;;;5023579;28;20042;-66
2022/05/18 03:07:30;;;;;;;8.80;5.80;;;15.70;99.90;;;;;;5024386;28;20053;-66
2022/05/18 03:09:56;;;;;;;6.00;5.22;;;15.70;99.90;;;;;;5025030;28;20042;-66
2022/05/18 03:12:21;;;;;;;6.15;5.43;;;15.60;99.90;;;;;;5023006;28;20468;-66
2022/05/18 03:14:47;;;;;;;7.47;5.63;;;15.60;99.90;;;;;;5024329;28;20037;-66
2022/05/18 03:17:13;;;;;;;7.18;5.82;;;15.60;99.90;;;;;;5024379;28;20049;-66
2022/05/18 03:19:38;;;;;;;7.05;5.70;;;15.50;99.90;;;;;;5025888;28;20041;-66
2022/05/18 03:24:49;;;;;;;8.50;5.85;;;15.50;99.90;;;;;;5024216;28;20042;-66
2022/05/18 03:27:14;;;;;;;10.13;6.22;;;15.50;99.90;;;;;;5023644;28;20042;-66
2022/05/18 03:29:40;;;;;;;5.80;5.15;;;15.50;99.90;;;;;;5026440;28;20114;-66
2022/05/18 03:32:06;;;;;;;5.90;5.30;;;15.50;99.90;;;;;;5024323;28;20052;-66
2022/05/18 03:34:33;;;;;;;7.57;6.10;;;15.50;99.90;;;;;;5024760;28;20095;-65
2022/05/18 03:36:59;;;;;;;7.85;5.72;;;15.50;99.90;;;;;;5024676;28;20480;-66
2022/05/18 03:39:25;;;;;;;7.28;5.20;;;15.50;99.90;;;;;;5024664;28;20492;-66
2022/05/18 03:42:00;;;;;;;7.28;6.03;;;15.50;99.90;;;;;;5025686;28;20036;-66
2022/05/18 03:44:25;;;;;;;6.15;5.55;;;15.50;99.90;;;;;;5025832;28;20048;-66
2022/05/18 03:46:51;;;;;;;10.43;7.07;;;15.50;99.90;;;;;;5021080;28;20045;-66
2022/05/18 03:49:17;;;;;;;7.35;5.85;;;15.50;99.90;;;;;;5025122;28;20056;-66
2022/05/18 03:51:42;;;;;;;8.05;5.93;;;15.50;99.90;;;;;;5023940;28;20052;-66
2022/05/18 03:54:08;;;;;;;6.82;5.60;;;15.50;99.90;;;;;;5022945;28;20049;-66
2022/05/18 03:56:33;;;;;;;8.68;5.88;;;16.80;99.90;;;;;;5024605;28;20068;-66
2022/05/18 03:59:00;;;;;;;7.65;5.80;;;15.50;99.90;;;;;;5025647;28;20061;-66
2022/05/18 04:01:26;;;;;;;9.80;6.00;;;15.50;99.90;;;;;;5025510;28;20559;-66
2022/05/18 04:03:52;;;;;;;6.45;5.25;;;15.60;99.90;;;;;;5022768;28;20476;-66
2022/05/18 04:06:18;;;;;;;9.75;5.57;;;15.50;99.90;;;;;;5024518;28;20045;-66
2022/05/18 04:08:44;;;;;;;9.93;6.18;;;15.50;99.90;;;;;;5024382;28;20128;-66
2022/05/18 04:11:11;;;;;;;8.73;5.68;;;15.50;99.90;;;;;;5024690;28;20037;-66
2022/05/18 04:13:37;;;;;;;7.38;5.28;;;15.50;99.90;;;;;;5024573;28;20048;-66
2022/05/18 04:16:03;;;;;;;6.53;5.22;;;15.50;99.90;;;;;;5024523;28;20045;-67
2022/05/18 04:18:29;;;;;;;6.13;5.50;;;15.50;99.90;;;;;;5025105;28;20037;-66
2022/05/18 04:20:55;;;;;;;7.32;5.65;;;15.50;99.90;;;;;;5022947;28;20124;-66
2022/05/18 04:23:23;;;;;;;7.05;5.10;;;15.50;99.90;;;;;;5022579;28;20080;-66
2022/05/18 04:25:49;;;;;;;6.32;5.13;;;15.50;99.90;;;;;;5025439;28;20511;-66
2022/05/18 04:28:14;;;;;;;8.27;5.57;;;15.50;99.90;;;;;;5024030;28;20046;-66
2022/05/18 04:30:43;;;;;;;10.07;6.32;;;15.50;99.90;;;;;;5025369;28;20033;-66
2022/05/18 04:33:10;;;;;;;8.30;5.90;;;15.50;99.90;;;;;;5023404;28;20045;-66
2022/05/18 04:35:35;;;;;;;5.35;4.90;;;15.50;99.90;;;;;;5024887;28;20112;-66
2022/05/18 04:38:01;;;;;;;5.63;5.05;;;15.50;99.90;;;;;;5024159;28;20131;-66
2022/05/18 04:40:27;;;;;;;8.07;5.05;;;15.50;99.90;;;;;;5022929;28;20468;-66
2022/05/18 04:42:52;;;;;;;7.70;5.72;;;15.50;99.90;;;;;;5023045;28;20033;-66
2022/05/18 04:45:21;;;;;;;8.93;5.68;;;15.50;99.90;;;;;;5023063;28;20107;-66
2022/05/18 04:47:50;;;;;;;9.50;6.25;;;15.50;99.90;;;;;;5023387;28;20046;-66
2022/05/18 04:50:16;;;;;;;6.20;5.60;;;15.60;99.90;;;;;;5021556;28;20049;-66
2022/05/18 04:52:41;;;;;;;7.32;6.15;;;15.60;99.90;;;;;;5024663;28;20042;-66
2022/05/18 04:55:10;;;;;;;6.43;5.85;;;15.60;99.90;;;;;;5024140;28;20094;-66
2022/05/18 04:57:36;;;;;;;10.57;6.00;;;15.60;99.90;;;;;;5024364;28;20037;-66
2022/05/18 05:00:04;;;;;;;8.23;6.05;;;15.70;99.90;;;;;;5023614;28;20143;-65
2022/05/18 05:02:32;;;;;;;8.73;5.93;;;15.70;99.90;;;;;;5021950;28;20053;-66
2022/05/18 05:04:58;;;;;;;7.75;6.10;;;15.70;99.90;;;;;;5024742;28;20041;-66
2022/05/18 05:07:24;;;;;;;9.70;5.80;;;15.70;99.90;;;;;;5024128;28;20052;-66
2022/05/18 05:09:49;;;;;;;8.43;5.65;;;15.80;99.90;;;;;;5023270;28;20041;-66
2022/05/18 05:12:15;;;;;;;6.57;5.80;;;15.80;99.90;;;;;;5021850;28;20048;-66
2022/05/18 05:14:40;;;;;;;8.27;5.93;;;15.80;99.90;;;;;;5022763;28;20080;-66
2022/05/18 05:17:07;;;;;;;7.95;5.95;;;15.80;99.90;;;;;;5021262;28;20136;-66
2022/05/18 05:19:35;;;;;;;6.15;5.35;;;15.90;99.90;;;;;;5021802;28;20037;-66
2022/05/18 05:22:00;;;;;;;9.65;5.50;;;15.90;99.90;;;;;;5023674;28;20511;-66
2022/05/18 05:24:26;;;;;;;8.32;5.88;;;15.90;99.90;;;;;;5021443;28;20038;-66
2022/05/18 05:26:52;;;;;;;7.43;6.40;;;16.00;99.90;;;;;;5022594;28;20123;-66
2022/05/18 05:29:19;;;;;;;8.30;6.30;;;16.00;99.90;;;;;;5023183;28;20521;-66
2022/05/18 05:31:44;;;;;;;12.98;7.25;;;16.10;99.90;;;;;;5024966;28;20045;-66
2022/05/18 05:34:10;;;;;;;8.00;6.55;;;16.10;99.90;;;;;;5026893;28;20404;-66
2022/05/18 05:36:36;;;;;;;11.45;6.53;;;16.20;99.90;;;;;;5026728;28;20428;-66
2022/05/18 05:39:02;;;;;;;12.15;6.13;;;16.30;99.90;;;;;;5027292;28;20052;-66
2022/05/18 05:41:28;;;;;;;11.75;6.43;;;16.30;99.90;;;;;;5024830;28;20551;-66
2022/05/18 05:43:55;;;;;;;7.93;6.05;;;16.40;99.90;;;;;;5027469;28;20244;-66
2022/05/18 05:46:21;;;;;;;8.57;6.00;;;16.50;99.90;;;;;;5025230;28;20049;-66
2022/05/18 05:48:47;;;;;;;9.65;6.97;;;16.50;99.90;;;;;;5026017;28;20052;-66
2022/05/18 05:51:14;;;;;;;11.02;7.03;;;16.60;99.90;;;;;;5026370;28;20038;-66
2022/05/18 05:53:41;;;;;;;9.02;7.65;;;16.70;99.90;;;;;;5026575;28;20045;-66
2022/05/18 05:56:08;;;;;;;8.98;6.85;;;16.80;99.90;;;;;;5026915;28;20038;-66
2022/05/18 05:58:36;;;;;;;11.05;7.22;;;16.80;99.90;;;;;;5026239;28;20061;-66
2022/05/18 06:01:05;;;;;;;11.65;7.03;;;16.90;99.90;;;;;;5023782;28;20049;-66
2022/05/18 06:03:31;;;;;;;10.95;7.50;;;17.00;99.90;;;;;;5022401;28;20525;-66
2022/05/18 06:05:57;;;;;;;7.72;6.95;;;17.00;99.90;;;;;;5027189;28;20404;-66
2022/05/18 06:08:23;;;;;;;9.73;6.88;;;17.10;99.90;;;;;;5026189;28;20045;-66
2022/05/18 06:10:49;;;;;;;9.27;7.45;;;17.20;99.90;;;;;;5027873;28;20037;-66
2022/05/18 06:13:15;;;;;;;11.45;7.07;;;17.20;99.90;;;;;;5025228;28;20053;-66
2022/05/18 06:15:41;;;;;;;10.40;7.35;;;17.30;99.90;;;;;;5026401;28;20045;-66
2022/05/18 06:18:10;;;;;;;9.07;7.40;;;17.40;99.90;;;;;;5025747;28;20045;-66
2022/05/18 06:20:36;;;;;;;11.55;7.13;;;18.90;99.90;;;;;;5025892;28;20523;-66
2022/05/18 06:23:08;;;;;;;8.95;8.05;;;17.50;99.90;;;;;;5025137;28;20049;-66
2022/05/18 06:25:34;;;;;;;7.85;7.15;;;17.60;99.90;;;;;;5026398;28;20377;-66
2022/05/18 06:27:59;;;;;;;13.70;8.50;;;17.70;99.90;;;;;;5026060;28;20356;-66
2022/05/18 06:30:26;;;;;;;12.43;8.63;;;17.70;99.90;;;;;;5024196;28;20649;-66
2022/05/18 06:32:52;;;;;;;12.10;8.65;;;17.80;99.90;;;;;;5025035;28;20064;-66
2022/05/18 06:35:20;;;;;;;10.43;8.32;;;17.90;99.90;;;;;;5022758;28;20053;-66
2022/05/18 06:37:48;;;;;;;11.60;8.98;;;18.00;99.90;;;;;;5025026;28;20137;-66
2022/05/18 06:40:14;;;;;;;12.32;8.48;;;18.10;99.90;;;;;;5025142;28;20095;-66
2022/05/18 06:42:43;;;;;;;17.67;9.57;;;18.20;99.90;;;;;;5022626;28;20046;-66
2022/05/18 06:45:11;;;;;;;12.02;9.25;;;18.30;99.90;;;;;;5024384;28;20655;-66
2022/05/18 06:47:36;;;;;;;10.68;8.68;;;18.40;99.90;;;;;;5027470;28;20037;-66
2022/05/18 06:50:04;;;;;;;13.43;9.85;;;18.50;99.90;;;;;;5025227;28;20365;-66
2022/05/18 06:52:30;;;;;;;14.25;10.23;;;18.70;99.90;;;;;;5025282;28;20136;-66
2022/05/18 06:54:56;;;;;;;14.63;10.00;;;18.80;99.90;;;;;;5026539;28;20091;-65
2022/05/18 06:57:22;;;;;;;13.77;10.27;;;18.90;99.90;;;;;;5025887;28;20053;-67
2022/05/18 06:59:48;;;;;;;12.90;9.98;;;19.00;99.90;;;;;;5025693;28;20046;-66
2022/05/18 07:02:13;;;;;;;15.57;10.20;;;19.10;99.90;;;;;;5026949;28;20057;-67
2022/05/18 07:04:39;;;;;;;15.10;11.07;;;19.20;99.90;;;;;;5026786;28;20042;-66
2022/05/18 07:07:04;;;;;;;14.90;10.40;;;19.20;99.90;;;;;;5025733;28;20049;-66
2022/05/18 07:09:30;;;;;;;14.00;9.73;;;19.30;99.90;;;;;;5026244;28;20057;-65
2022/05/18 07:11:56;;;;;;;12.85;10.43;;;19.40;99.90;;;;;;5024265;28;20141;-65
2022/05/18 07:14:26;;;;;;;13.32;10.32;;;19.60;99.90;;;;;;5025024;28;20454;-66
2022/05/18 07:16:52;;;;;;;10.95;9.52;;;19.70;99.90;;;;;;5022727;28;20045;-66
2022/05/18 07:19:18;;;;;;;15.20;11.23;;;19.70;99.90;;;;;;5022922;28;20041;-66
2022/05/18 07:21:45;;;;;;;12.45;9.77;;;19.90;99.90;;;;;;5025255;28;20042;-72
2022/05/18 07:24:11;;;;;;;11.65;9.70;;;19.90;99.90;;;;;;5027631;28;20052;-68
2022/05/18 07:26:37;;;;;;;16.38;10.75;;;20.00;99.90;;;;;;5026023;28;20084;-70
2022/05/18 07:29:05;;;;;;;14.05;10.82;;;20.10;99.90;;;;;;5025971;28;20488;-77
2022/05/18 07:32:08;;;;;;;13.48;10.38;;;20.40;99.90;;;;;;5023084;28;20096;-70
2022/05/18 07:34:16;;;;;;;17.20;10.43;;;20.40;99.90;;;;;;5024188;28;20115;-68
2022/05/18 07:36:44;;;;;;;14.93;9.70;;;20.60;99.90;;;;;;5026279;28;20041;-68
2022/05/18 07:42:29;;;;;;;14.23;10.35;;;20.80;99.90;;;;;;5024966;28;20062;-69
2022/05/18 07:44:55;;;;;;;15.88;10.30;;;21.00;99.90;;;;;;5026126;28;20044;-69
2022/05/18 07:47:28;;;;;;;15.23;9.68;;;21.10;99.90;;;;;;5023924;28;20041;-68
2022/05/18 07:49:53;;;;;;;11.95;9.43;;;21.10;99.90;;;;;;5027421;28;20092;-69
2022/05/18 07:52:19;;;;;;;15.23;9.38;;;21.20;99.90;;;;;;5022914;28;20091;-67
2022/05/18 07:54:47;;;;;;;14.02;8.38;;;21.30;99.90;;;;;;5022178;28;20056;-68
2022/05/18 07:57:15;;;;;;;9.70;8.75;;;21.50;99.90;;;;;;5014660;28;20107;-67
2022/05/18 07:59:41;;;;;;;12.63;8.95;;;21.60;99.90;;;;;;5021733;28;20519;-67
2022/05/18 08:02:07;;;;;;;11.60;8.88;;;21.80;99.90;;;;;;5022357;28;20555;-70
2022/05/18 08:04:32;;;;;;;9.35;7.68;;;21.90;99.90;;;;;;5029350;28;20045;-68
2022/05/18 08:06:59;;;;;;;9.73;8.23;;;22.00;99.90;;;;;;5018982;28;20071;-68
2022/05/18 08:09:25;;;;;;;10.45;8.05;;;22.10;99.90;;;;;;5028310;28;20488;-68
2022/05/18 08:17:21;;;;;;;11.25;7.45;;;22.30;99.90;;;;;;5023716;28;20502;-69
2022/05/18 08:19:47;;;;;;;12.15;8.35;;;22.40;99.90;;;;;;5023213;28;20052;-68
2022/05/18 08:22:13;;;;;;;7.72;6.80;;;22.50;99.90;;;;;;5016530;28;20038;-68
2022/05/18 08:24:38;;;;;;;8.10;5.93;;;22.60;99.90;;;;;;5007087;28;20042;-68
2022/05/18 08:27:06;;;;;;;8.27;7.22;;;22.70;99.90;;;;;;5006769;28;20658;-69
2022/05/18 08:29:32;;;;;;;20.48;7.57;;;22.80;99.90;;;;;;5007504;28;20420;-68
2022/05/18 08:31:58;;;;;;;6.95;6.25;;;22.90;99.90;;;;;;5012418;28;20050;-69
2022/05/18 08:34:23;;;;;;;9.82;6.20;;;23.00;99.90;;;;;;5024105;28;20049;-68
2022/05/18 08:36:49;;;;;;;9.27;6.13;;;23.10;99.90;;;;;;5025488;28;20700;-68
2022/05/18 08:39:15;;;;;;;9.52;5.55;;;23.10;99.90;;;;;;5024435;28;20606;-68
2022/05/18 08:41:45;;;;;;;6.38;4.85;;;23.20;99.90;;;;;;5026066;28;20393;-68
2022/05/18 08:44:32;;;;;;;5.25;4.75;;;23.30;99.90;;;;;;5018513;28;20041;-68
2022/05/18 08:47:19;;;;;;;9.20;5.70;;;23.40;99.90;;;;;;5008635;28;20054;-68
2022/05/18 08:50:00;;;;;;;9.18;5.85;;;23.50;99.90;;;;;;5005010;28;20407;-68
2022/05/18 08:52:45;;;;;;;5.78;4.65;;;23.50;99.90;;;;;;5010029;28;20049;-68
2022/05/18 08:55:49;;;;;;;8.50;5.75;;;23.50;99.90;;;;;;5020023;28;20458;-68
2022/05/18 08:58:45;;;;;;;5.35;4.75;;;23.60;99.90;;;;;;5021308;28;20089;-68
2022/05/18 09:01:17;;;;;;;7.25;4.82;;;23.70;99.90;;;;;;5025470;28;20053;-68
2022/05/18 09:03:42;;;;;;;;;;;23.80;99.90;;;;;;5025344;28;20057;-69
2022/05/18 09:06:29;;;;;;;8.85;5.50;;;23.80;99.90;;;;;;5022214;28;19922;-68
2022/05/18 09:11:52;;;;;;;8.20;5.55;;;24.00;99.90;;;;;;5027769;28;20045;-69
2022/05/18 09:14:23;;;;;;;8.82;6.15;;;24.00;99.90;;;;;;5027802;28;20053;-68
2022/05/18 09:17:19;;;;;;;8.32;4.78;;;24.10;99.90;;;;;;5026672;28;20045;-69
2022/05/18 09:19:56;;;;;;;11.77;6.95;;;24.10;99.90;;;;;;5029263;28;20055;-69
2022/05/18 09:22:36;;;;;;;6.90;5.82;;;24.10;99.90;;;;;;5027585;28;20401;-68
2022/05/18 09:25:25;;;;;;;8.25;6.45;;;24.20;99.90;;;;;;5028006;28;20044;-68
2022/05/18 09:27:59;;;;;;;9.15;6.35;;;24.20;99.90;;;;;;5024087;28;20092;-68
2022/05/18 09:30:28;;;;;;;10.75;5.68;;;24.30;99.90;;;;;;5017036;28;20129;-68
2022/05/18 09:33:20;;;;;;;8.00;5.45;;;24.40;99.90;;;;;;5010379;28;20129;-68
2022/05/18 09:36:02;;;;;;;10.63;6.50;;;24.50;99.90;;;;;;5000783;28;20060;-69
2022/05/18 09:38:46;;;;;;;9.52;5.90;;;24.60;99.90;;;;;;5026032;28;20133;-68
2022/05/18 09:41:18;;;;;;;8.43;5.53;;;24.70;99.90;;;;;;5012746;28;20054;-69
2022/05/18 09:44:07;;;;;;;8.80;5.47;;;24.80;99.90;;;;;;5009694;28;20049;-68
2022/05/18 09:46:33;;;;;;;9.57;5.22;;;24.90;99.90;;;;;;5009165;28;20103;-68
2022/05/18 09:49:08;;;;;;;7.32;5.78;;;24.80;99.90;;;;;;5008339;28;20104;-68
2022/05/18 09:51:36;;;;;;;11.07;6.38;;;24.80;99.90;;;;;;5016616;28;20686;-68
2022/05/18 09:54:03;;;;;;;7.57;6.30;;;24.90;99.90;;;;;;5016262;28;20487;-68
2022/05/18 09:56:38;;;;;;;9.18;7.03;;;24.90;99.90;;;;;;5020832;28;20056;-68
2022/05/18 09:59:10;;;;;;;8.57;6.50;;;25.00;99.90;;;;;;5020710;28;20080;-68
2022/05/18 10:07:54;;;;;;;11.48;7.03;;;25.20;99.90;;;;;;5007496;28;20046;-68
2022/05/18 10:10:11;;;;;;;22.50;8.00;;;25.30;99.90;;;;;;5003307;28;20132;-68
2022/05/18 10:12:53;;;;;;;8.27;7.25;;;25.30;99.90;;;;;;5020210;28;20096;-69
2022/05/18 10:15:31;;;;;;;10.43;8.25;;;25.30;99.90;;;;;;5022567;28;20060;-68
2022/05/18 10:18:16;;;;;;;14.90;7.85;;;25.20;99.90;;;;;;5021385;28;20055;-69
2022/05/18 10:21:02;;;;;;;10.65;9.18;;;25.20;99.90;;;;;;5026921;28;20045;-69
2022/05/18 10:23:36;;;;;;;13.55;9.77;;;25.30;99.90;;;;;;5026010;28;20155;-69
2022/05/18 10:26:07;;;;;;;13.63;8.82;;;25.30;99.90;;;;;;5026625;28;20470;-69
2022/05/18 10:28:33;;;;;;;11.50;8.65;;;25.40;99.90;;;;;;5025915;28;20229;-69
2022/05/18 10:31:03;;;;;;;13.88;9.25;;;25.50;99.90;;;;;;5026374;28;20042;-70
2022/05/18 10:33:38;;;;;;;12.60;9.05;;;25.50;99.90;;;;;;5028196;28;20045;-69
2022/05/18 10:36:16;;;;;;;12.60;8.30;;;25.50;99.90;;;;;;5027529;28;20049;-68
2022/05/18 10:38:53;;;;;;;10.00;8.20;;;25.50;99.90;;;;;;5045979;28;20069;-70
2022/05/18 10:41:24;;;;;;;13.70;8.82;;;25.50;99.90;;;;;;5042143;28;20103;-69
2022/05/18 10:44:03;;;;;;;11.32;8.35;;;25.50;99.90;;;;;;5028653;28;20049;-69
2022/05/18 10:46:40;;;;;;;10.20;7.57;;;25.50;99.90;;;;;;5027409;28;20041;-69
2022/05/18 10:49:29;;;;;;;12.20;8.23;;;25.60;99.90;;;;;;5026657;28;20045;-69
2022/05/18 10:52:13;;;;;;;11.48;8.70;;;25.60;99.90;;;;;;5026926;28;20139;-69
2022/05/18 10:54:40;;;;;;;8.70;7.72;;;25.70;99.90;;;;;;5026897;28;20045;-70
2022/05/18 10:57:20;;;;;;;9.95;7.57;;;25.80;99.90;;;;;;5028634;28;20095;-69
2022/05/18 11:00:07;;;;;;;10.63;7.85;;;25.80;99.90;;;;;;5025685;28;20066;-69
2022/05/18 11:02:57;;;;;;;10.02;7.07;;;25.90;99.90;;;;;;5027167;28;20034;-69
2022/05/18 11:05:51;;;;;;;9.38;7.78;;;26.00;99.90;;;;;;5026638;28;20049;-69
2022/05/18 11:08:20;;;;;;;14.40;9.52;;;26.00;99.90;;;;;;5014579;28;20057;-69
2022/05/18 11:11:15;;;;;;;9.52;6.22;;;26.10;99.90;;;;;;5016193;28;20053;-69
2022/05/18 11:14:01;;;;;;;11.73;7.75;;;26.10;99.90;;;;;;5025580;28;20069;-69
2022/05/18 11:16:50;;;;;;;10.55;8.48;;;26.20;99.90;;;;;;5024197;28;20412;-69
2022/05/18 11:19:29;;;;;;;10.40;8.35;;;26.20;99.00;;;;;;5025332;28;20041;-68
2022/05/18 11:22:28;;;;;;;8.38;7.57;;;26.20;98.50;;;;;;5026845;28;20041;-69
2022/05/18 11:24:57;;;;;;;10.07;8.27;;;26.20;99.10;;;;;;5026685;28;20125;-69
2022/05/18 11:27:33;;;;;;;13.68;8.70;;;26.20;99.50;;;;;;5025683;28;20049;-69
2022/05/18 11:30:08;;;;;;;11.10;8.35;;;26.20;99.20;;;;;;5026200;28;20138;-69
2022/05/18 11:33:11;;;;;;;11.10;8.32;;;26.20;98.70;;;;;;5025501;28;20168;-69
2022/05/18 11:35:45;;;;;;;9.73;7.65;;;26.10;99.90;;;;;;5025827;28;20053;-69
2022/05/18 11:38:53;;;;;;;11.55;8.73;;;26.00;99.90;;;;;;5024831;28;20072;-69
2022/05/18 11:41:47;;;;;;;9.45;8.35;;;25.90;99.90;;;;;;5023099;28;20614;-69
2022/05/18 11:44:25;;;;;;;10.68;8.07;;;25.90;99.90;;;;;;5021322;28;20065;-69
2022/05/18 11:47:18;;;;;;;11.45;10.02;;;25.90;99.90;;;;;;5018477;28;20377;-69
2022/05/18 11:50:07;;;;;;;11.35;8.32;;;26.10;99.90;;;;;;5026852;28;20041;-69
2022/05/18 11:53:09;;;;;;;14.93;8.82;;;26.20;99.90;;;;;;5025015;28;20049;-69
2022/05/18 11:55:57;;;;;;;11.70;7.68;;;26.30;99.90;;;;;;5027089;28;20125;-69
2022/05/18 11:58:47;;;;;;;11.43;9.00;;;26.40;99.90;;;;;;5025658;28;20084;-68
2022/05/18 12:01:21;;;;;;;10.70;9.32;;;26.50;99.90;;;;;;5025158;28;20052;-69
2022/05/18 12:04:12;;;;;;;8.05;7.25;;;26.70;99.90;;;;;;5022879;28;20576;-69
2022/05/18 12:07:04;;;;;;;9.57;8.52;;;26.90;99.90;;;;;;5024334;28;20132;-69
2022/05/18 12:09:53;;;;;;;13.07;7.35;;;26.90;99.90;;;;;;5026201;28;20045;-69
2022/05/18 12:12:37;;;;;;;16.33;9.15;;;26.80;99.90;;;;;;5022289;28;20054;-69
2022/05/18 12:15:22;;;;;;;10.57;8.07;;;26.80;99.90;;;;;;5019257;28;20038;-69
2022/05/18 12:17:59;;;;;;;9.15;7.18;;;27.00;99.90;;;;;;5017713;28;20056;-68
2022/05/18 12:20:27;;;;;;;7.95;7.15;;;27.20;99.90;;;;;;5024219;28;20041;-69
2022/05/18 12:22:59;;;;;;;10.15;6.55;;;27.40;99.90;;;;;;5026564;28;20064;-69
2022/05/18 12:25:28;;;;;;;9.02;6.93;;;27.50;99.90;;;;;;5025973;28;20050;-69
2022/05/18 12:27:57;;;;;;;12.98;8.27;;;27.50;99.90;;;;;;5024858;28;20048;-69
2022/05/18 12:30:26;;;;;;;14.27;7.75;;;27.40;99.90;;;;;;5025860;28;20049;-69
2022/05/18 12:32:54;;;;;;;11.75;7.47;;;27.40;99.90;;;;;;5024558;28;20373;-69
2022/05/18 12:35:35;;;;;;;9.75;8.25;;;27.00;99.90;;;;;;5024642;28;20119;-69
2022/05/18 12:38:25;;;;;;;10.43;7.83;;;26.70;99.90;;;;;;5023923;28;20666;-69
2022/05/18 12:40:56;;;;;;;13.30;8.90;;;26.50;99.90;;;;;;5023204;28;20048;-68
2022/05/18 12:43:26;;;;;;;10.00;8.98;;;26.40;99.90;;;;;;5028959;28;20049;-69
2022/05/18 12:45:59;;;;;;;13.18;9.18;;;26.40;99.90;;;;;;5029846;28;20136;-69
2022/05/18 12:48:38;;;;;;;14.00;9.20;;;26.30;99.90;;;;;;5027768;28;20041;-68
2022/05/18 12:51:27;;;;;;;11.50;9.10;;;26.30;99.90;;;;;;5035630;28;20055;-68
2022/05/18 12:54:11;;;;;;;10.02;8.63;;;26.30;99.90;;;;;;5015570;28;20034;-68
2022/05/18 12:56:36;;;;;;;12.80;9.45;;;26.30;99.90;;;;;;5017286;28;20057;-69
2022/05/18 12:59:23;;;;;;;14.25;9.65;;;26.20;99.90;;;;;;5018610;28;20061;-68
2022/05/18 13:02:03;;;;;;;12.30;9.48;;;26.40;99.90;;;;;;5028505;28;20401;-69
2022/05/18 13:04:44;;;;;;;15.90;9.93;;;26.60;99.90;;;;;;5019693;28;20053;-69
2022/05/18 13:07:21;;;;;;;12.55;10.35;;;26.70;99.90;;;;;;5015395;28;20120;-69
2022/05/18 13:09:47;;;;;;;12.68;8.93;;;26.60;99.90;;;;;;5021931;28;20053;-69
2022/05/18 13:12:25;;;;;;;16.02;8.23;;;26.40;99.90;;;;;;5027978;28;20041;-69
2022/05/18 13:14:56;;;;;;;11.57;8.25;;;26.40;99.90;;;;;;5029654;28;20053;-69
2022/05/18 13:17:23;;;;;;;11.32;8.13;;;26.30;99.90;;;;;;5030115;28;20041;-68
2022/05/18 13:19:59;;;;;;;20.83;15.70;;;26.30;99.90;;;;;;5030249;28;20504;-69
2022/05/18 13:22:39;;;;;;;22.45;15.00;;;26.30;99.90;;;;;;5029502;28;20518;-69
2022/05/18 13:25:05;;;;;;;19.23;14.65;;;26.20;99.90;;;;;;5028980;28;20034;-69
2022/05/18 13:27:37;;;;;;;27.20;16.63;;;26.10;99.90;;;;;;5028469;28;20049;-69